EETU

Tartu Airport

Tartu, Estonia
METAR EETU 230850Z 20013KT 9999 FEW012 06/02 Q0996
Observed Flight Rules
Oct-23 @ 08:50 UTC (49 minutes ago) Visual Flight Rules
Wind Visibility Clouds
200° at 13 knots 10,000+ meters
  • Few at 1,200' AGL
Temperatures Readings
Current 6°C / 43°F
Dewpoint 2°C / 36°F
Humidity 76%
Altimeter 29.41" Hg
Pressure 996 hPa
Elevation 67
METAR EETU 230850Z 20013KT 9999 FEW012 06/02 Q0996
Observed Flight Rules
Oct-23 @ 08:50 UTC
(49 minutes ago)
VFR
Wind Visibility
200° at 13 knots 10,000+ meters
Clouds
  • Few at 1,200' AGL
Temperature Dewpoint
6°C / 43°F 2°C / 36°F
Humidity Altimeter Pressure
76% 29.41" Hg 996 hPa